sensor_id;sensor_type;location;lat;lon;timestamp;P1;durP1;ratioP1;P2;durP2;ratioP2
35757;SDS011;21879;50.110;18.900;2023-01-30T00:09:39;17.50;;;9.00;;
35757;SDS011;21879;50.110;18.900;2023-01-30T00:20:07;16.20;;;9.10;;
35757;SDS011;21879;50.110;18.900;2023-01-30T00:30:39;19.70;;;10.80;;
35757;SDS011;21879;50.110;18.900;2023-01-30T00:41:07;19.20;;;11.40;;
35757;SDS011;21879;50.110;18.900;2023-01-30T00:51:36;16.90;;;9.00;;
35757;SDS011;21879;50.110;18.900;2023-01-30T01:02:04;12.70;;;7.90;;
35757;SDS011;21879;50.110;18.900;2023-01-30T01:12:31;20.70;;;8.80;;
35757;SDS011;21879;50.110;18.900;2023-01-30T01:22:59;20.00;;;8.30;;
35757;SDS011;21879;50.110;18.900;2023-01-30T01:33:27;16.00;;;8.70;;
35757;SDS011;21879;50.110;18.900;2023-01-30T01:44:02;16.20;;;8.80;;
35757;SDS011;21879;50.110;18.900;2023-01-30T01:54:32;18.70;;;8.20;;
35757;SDS011;21879;50.110;18.900;2023-01-30T02:05:04;15.00;;;7.20;;
35757;SDS011;21879;50.110;18.900;2023-01-30T02:15:34;14.40;;;7.30;;
35757;SDS011;21879;50.110;18.900;2023-01-30T02:26:12;12.70;;;6.80;;
35757;SDS011;21879;50.110;18.900;2023-01-30T02:37:11;12.10;;;7.10;;
35757;SDS011;21879;50.110;18.900;2023-01-30T02:47:48;14.60;;;6.70;;
35757;SDS011;21879;50.110;18.900;2023-01-30T02:58:21;11.50;;;6.80;;
35757;SDS011;21879;50.110;18.900;2023-01-30T03:08:53;13.60;;;7.20;;
35757;SDS011;21879;50.110;18.900;2023-01-30T03:19:29;12.80;;;7.30;;
35757;SDS011;21879;50.110;18.900;2023-01-30T03:29:56;12.70;;;5.70;;
35757;SDS011;21879;50.110;18.900;2023-01-30T03:40:24;12.60;;;6.50;;
35757;SDS011;21879;50.110;18.900;2023-01-30T03:50:51;12.90;;;7.40;;
35757;SDS011;21879;50.110;18.900;2023-01-30T04:01:19;12.30;;;6.40;;
35757;SDS011;21879;50.110;18.900;2023-01-30T04:11:47;14.90;;;7.40;;
35757;SDS011;21879;50.110;18.900;2023-01-30T04:22:15;13.50;;;7.00;;
35757;SDS011;21879;50.110;18.900;2023-01-30T04:32:42;13.60;;;7.00;;
35757;SDS011;21879;50.110;18.900;2023-01-30T04:43:10;14.00;;;7.00;;
35757;SDS011;21879;50.110;18.900;2023-01-30T04:53:37;15.40;;;9.40;;
35757;SDS011;21879;50.110;18.900;2023-01-30T05:04:05;17.50;;;8.40;;
35757;SDS011;21879;50.110;18.900;2023-01-30T05:14:33;18.00;;;10.60;;
35757;SDS011;21879;50.110;18.900;2023-01-30T05:25:05;14.10;;;7.00;;
35757;SDS011;21879;50.110;18.900;2023-01-30T05:35:34;18.40;;;10.50;;
35757;SDS011;21879;50.110;18.900;2023-01-30T05:46:02;17.20;;;10.90;;
35757;SDS011;21879;50.110;18.900;2023-01-30T05:56:31;15.50;;;8.90;;
35757;SDS011;21879;50.110;18.900;2023-01-30T06:06:59;16.00;;;9.70;;
35757;SDS011;21879;50.110;18.900;2023-01-30T06:17:27;13.80;;;7.90;;
35757;SDS011;21879;50.110;18.900;2023-01-30T06:27:54;17.00;;;10.10;;
35757;SDS011;21879;50.110;18.900;2023-01-30T06:38:22;16.60;;;8.20;;
35757;SDS011;21879;50.110;18.900;2023-01-30T06:48:51;16.80;;;9.90;;
35757;SDS011;21879;50.110;18.900;2023-01-30T07:09:46;20.30;;;11.40;;
35757;SDS011;21879;50.110;18.900;2023-01-30T07:20:31;13.90;;;8.90;;
35757;SDS011;21879;50.110;18.900;2023-01-30T07:30:59;17.70;;;8.50;;
35757;SDS011;21879;50.110;18.900;2023-01-30T07:41:28;16.00;;;9.50;;
35757;SDS011;21879;50.110;18.900;2023-01-30T07:51:56;13.30;;;8.70;;
35757;SDS011;21879;50.110;18.900;2023-01-30T08:02:24;18.50;;;11.10;;
35757;SDS011;21879;50.110;18.900;2023-01-30T08:12:52;17.90;;;10.70;;
35757;SDS011;21879;50.110;18.900;2023-01-30T08:23:21;21.40;;;12.20;;
35757;SDS011;21879;50.110;18.900;2023-01-30T08:33:50;18.80;;;10.40;;
35757;SDS011;21879;50.110;18.900;2023-01-30T08:44:19;20.90;;;12.30;;
35757;SDS011;21879;50.110;18.900;2023-01-30T08:54:47;17.90;;;9.80;;
35757;SDS011;21879;50.110;18.900;2023-01-30T09:05:15;18.50;;;9.70;;
35757;SDS011;21879;50.110;18.900;2023-01-30T09:15:43;13.20;;;6.70;;
35757;SDS011;21879;50.110;18.900;2023-01-30T09:26:11;15.30;;;8.10;;
35757;SDS011;21879;50.110;18.900;2023-01-30T09:36:38;16.60;;;11.00;;
35757;SDS011;21879;50.110;18.900;2023-01-30T09:47:08;18.00;;;9.00;;
35757;SDS011;21879;50.110;18.900;2023-01-30T09:57:37;17.30;;;8.80;;
35757;SDS011;21879;50.110;18.900;2023-01-30T10:08:10;18.30;;;10.00;;
35757;SDS011;21879;50.110;18.900;2023-01-30T10:29:59;18.50;;;12.00;;
35757;SDS011;21879;50.110;18.900;2023-01-30T10:40:32;20.50;;;10.60;;
35757;SDS011;21879;50.110;18.900;2023-01-30T10:51:09;21.90;;;11.50;;
35757;SDS011;21879;50.110;18.900;2023-01-30T11:01:48;17.70;;;10.10;;
35757;SDS011;21879;50.110;18.900;2023-01-30T11:12:22;21.20;;;11.80;;
35757;SDS011;21879;50.110;18.900;2023-01-30T11:22:51;19.10;;;11.70;;
35757;SDS011;21879;50.110;18.900;2023-01-30T11:33:32;21.90;;;13.20;;
35757;SDS011;21879;50.110;18.900;2023-01-30T11:44:02;19.80;;;12.40;;
35757;SDS011;21879;50.110;18.900;2023-01-30T11:54:31;17.10;;;8.10;;
35757;SDS011;21879;50.110;18.900;2023-01-30T12:05:04;18.00;;;10.50;;
35757;SDS011;21879;50.110;18.900;2023-01-30T12:15:44;17.60;;;9.20;;
35757;SDS011;21879;50.110;18.900;2023-01-30T12:26:17;16.80;;;9.70;;
35757;SDS011;21879;50.110;18.900;2023-01-30T12:36:52;19.80;;;11.30;;
35757;SDS011;21879;50.110;18.900;2023-01-30T12:47:40;19.00;;;10.00;;
35757;SDS011;21879;50.110;18.900;2023-01-30T12:58:19;18.40;;;9.30;;
35757;SDS011;21879;50.110;18.900;2023-01-30T13:08:53;21.00;;;10.40;;
35757;SDS011;21879;50.110;18.900;2023-01-30T13:19:30;19.20;;;10.70;;
35757;SDS011;21879;50.110;18.900;2023-01-30T13:30:07;19.40;;;10.50;;
35757;SDS011;21879;50.110;18.900;2023-01-30T13:40:41;14.10;;;8.60;;
35757;SDS011;21879;50.110;18.900;2023-01-30T13:51:16;16.70;;;9.00;;
35757;SDS011;21879;50.110;18.900;2023-01-30T14:12:47;15.20;;;9.30;;
35757;SDS011;21879;50.110;18.900;2023-01-30T14:23:20;16.20;;;10.20;;
35757;SDS011;21879;50.110;18.900;2023-01-30T14:33:51;19.90;;;10.30;;
35757;SDS011;21879;50.110;18.900;2023-01-30T14:55:20;15.50;;;7.80;;
35757;SDS011;21879;50.110;18.900;2023-01-30T15:05:57;15.40;;;9.30;;
35757;SDS011;21879;50.110;18.900;2023-01-30T15:16:41;15.60;;;9.00;;
35757;SDS011;21879;50.110;18.900;2023-01-30T15:27:21;16.30;;;10.00;;
35757;SDS011;21879;50.110;18.900;2023-01-30T15:37:56;16.50;;;8.70;;
35757;SDS011;21879;50.110;18.900;2023-01-30T15:48:36;17.20;;;10.90;;
35757;SDS011;21879;50.110;18.900;2023-01-30T16:09:57;22.10;;;13.00;;
35757;SDS011;21879;50.110;18.900;2023-01-30T16:20:34;18.60;;;11.30;;
35757;SDS011;21879;50.110;18.900;2023-01-30T16:31:32;16.00;;;9.00;;
35757;SDS011;21879;50.110;18.900;2023-01-30T16:42:03;15.70;;;7.90;;
35757;SDS011;21879;50.110;18.900;2023-01-30T16:52:49;16.00;;;9.50;;
35757;SDS011;21879;50.110;18.900;2023-01-30T17:03:21;19.00;;;10.40;;
35757;SDS011;21879;50.110;18.900;2023-01-30T17:13:58;21.20;;;13.80;;
35757;SDS011;21879;50.110;18.900;2023-01-30T17:35:09;12.20;;;7.80;;
35757;SDS011;21879;50.110;18.900;2023-01-30T17:45:38;15.80;;;10.20;;
35757;SDS011;21879;50.110;18.900;2023-01-30T17:56:09;14.30;;;7.50;;
35757;SDS011;21879;50.110;18.900;2023-01-30T18:06:44;13.80;;;7.70;;
35757;SDS011;21879;50.110;18.900;2023-01-30T18:17:15;15.70;;;8.30;;
35757;SDS011;21879;50.110;18.900;2023-01-30T18:27:43;15.70;;;10.20;;
35757;SDS011;21879;50.110;18.900;2023-01-30T18:38:11;12.30;;;7.40;;
35757;SDS011;21879;50.110;18.900;2023-01-30T18:48:39;13.00;;;6.20;;
35757;SDS011;21879;50.110;18.900;2023-01-30T18:59:08;15.50;;;6.80;;
35757;SDS011;21879;50.110;18.900;2023-01-30T19:09:36;11.10;;;6.10;;
35757;SDS011;21879;50.110;18.900;2023-01-30T19:20:05;10.20;;;6.00;;
35757;SDS011;21879;50.110;18.900;2023-01-30T19:30:36;12.70;;;6.40;;
35757;SDS011;21879;50.110;18.900;2023-01-30T19:51:35;14.60;;;8.10;;
35757;SDS011;21879;50.110;18.900;2023-01-30T20:02:04;11.10;;;7.10;;
35757;SDS011;21879;50.110;18.900;2023-01-30T20:12:34;10.20;;;5.70;;
35757;SDS011;21879;50.110;18.900;2023-01-30T20:23:02;12.60;;;8.20;;
35757;SDS011;21879;50.110;18.900;2023-01-30T20:33:31;12.20;;;7.80;;
35757;SDS011;21879;50.110;18.900;2023-01-30T20:43:58;9.50;;;4.70;;
35757;SDS011;21879;50.110;18.900;2023-01-30T20:54:31;5.50;;;2.80;;
35757;SDS011;21879;50.110;18.900;2023-01-30T21:05:00;6.90;;;2.10;;
35757;SDS011;21879;50.110;18.900;2023-01-30T21:15:28;5.30;;;2.10;;
35757;SDS011;21879;50.110;18.900;2023-01-30T21:26:00;12.00;;;3.70;;
35757;SDS011;21879;50.110;18.900;2023-01-30T21:36:30;6.60;;;3.20;;
35757;SDS011;21879;50.110;18.900;2023-01-30T21:46:58;7.50;;;3.60;;
35757;SDS011;21879;50.110;18.900;2023-01-30T21:57:26;14.30;;;4.90;;
35757;SDS011;21879;50.110;18.900;2023-01-30T22:07:53;9.90;;;4.70;;
35757;SDS011;21879;50.110;18.900;2023-01-30T22:18:21;10.50;;;5.60;;
35757;SDS011;21879;50.110;18.900;2023-01-30T22:28:52;8.10;;;3.10;;
35757;SDS011;21879;50.110;18.900;2023-01-30T22:39:20;7.90;;;3.70;;
35757;SDS011;21879;50.110;18.900;2023-01-30T22:49:49;9.10;;;4.10;;
35757;SDS011;21879;50.110;18.900;2023-01-30T23:00:17;15.70;;;5.80;;
35757;SDS011;21879;50.110;18.900;2023-01-30T23:10:45;4.50;;;1.70;;
35757;SDS011;21879;50.110;18.900;2023-01-30T23:21:13;5.20;;;2.30;;
35757;SDS011;21879;50.110;18.900;2023-01-30T23:31:42;6.40;;;3.40;;
35757;SDS011;21879;50.110;18.900;2023-01-30T23:42:11;5.70;;;3.40;;
35757;SDS011;21879;50.110;18.900;2023-01-30T23:52:39;5.90;;;3.70;;
